sensor_id;sensor_type;location;lat;lon;timestamp;P1;durP1;ratioP1;P2;durP2;ratioP2
27566;SDS011;15006;48.584;9.186;2024-02-21T00:01:07;15.70;;;8.45;;
27566;SDS011;15006;48.584;9.186;2024-02-21T00:03:33;16.67;;;8.88;;
27566;SDS011;15006;48.584;9.186;2024-02-21T00:05:59;19.58;;;8.68;;
27566;SDS011;15006;48.584;9.186;2024-02-21T00:08:25;20.10;;;8.63;;
27566;SDS011;15006;48.584;9.186;2024-02-21T00:10:51;12.48;;;8.25;;
27566;SDS011;15006;48.584;9.186;2024-02-21T00:13:17;11.50;;;7.53;;
27566;SDS011;15006;48.584;9.186;2024-02-21T00:15:42;11.85;;;6.90;;
27566;SDS011;15006;48.584;9.186;2024-02-21T00:18:08;10.80;;;7.57;;
27566;SDS011;15006;48.584;9.186;2024-02-21T00:20:36;13.93;;;6.10;;
27566;SDS011;15006;48.584;9.186;2024-02-21T00:23:02;17.95;;;6.55;;
27566;SDS011;15006;48.584;9.186;2024-02-21T00:25:28;10.38;;;6.50;;
27566;SDS011;15006;48.584;9.186;2024-02-21T00:27:54;9.52;;;6.40;;
27566;SDS011;15006;48.584;9.186;2024-02-21T00:30:20;12.55;;;6.43;;
27566;SDS011;15006;48.584;9.186;2024-02-21T00:32:47;18.38;;;6.70;;
27566;SDS011;15006;48.584;9.186;2024-02-21T00:35:13;7.93;;;5.03;;
27566;SDS011;15006;48.584;9.186;2024-02-21T00:37:40;11.73;;;4.90;;
27566;SDS011;15006;48.584;9.186;2024-02-21T00:40:06;9.82;;;4.75;;
27566;SDS011;15006;48.584;9.186;2024-02-21T00:42:32;8.50;;;4.55;;
27566;SDS011;15006;48.584;9.186;2024-02-21T00:44:58;8.73;;;4.80;;
27566;SDS011;15006;48.584;9.186;2024-02-21T00:47:24;10.40;;;4.82;;
27566;SDS011;15006;48.584;9.186;2024-02-21T00:49:50;12.98;;;4.68;;
27566;SDS011;15006;48.584;9.186;2024-02-21T00:52:16;9.52;;;4.38;;
27566;SDS011;15006;48.584;9.186;2024-02-21T00:54:42;10.82;;;5.05;;
27566;SDS011;15006;48.584;9.186;2024-02-21T00:57:08;8.73;;;4.65;;
27566;SDS011;15006;48.584;9.186;2024-02-21T00:59:34;14.90;;;5.40;;
27566;SDS011;15006;48.584;9.186;2024-02-21T01:02:00;12.02;;;5.03;;
27566;SDS011;15006;48.584;9.186;2024-02-21T01:04:26;11.93;;;5.03;;
27566;SDS011;15006;48.584;9.186;2024-02-21T01:06:52;10.70;;;4.65;;
27566;SDS011;15006;48.584;9.186;2024-02-21T01:09:17;9.68;;;4.60;;
27566;SDS011;15006;48.584;9.186;2024-02-21T01:11:43;11.18;;;4.30;;
27566;SDS011;15006;48.584;9.186;2024-02-21T01:14:09;12.77;;;5.32;;
27566;SDS011;15006;48.584;9.186;2024-02-21T01:16:36;9.98;;;4.47;;
27566;SDS011;15006;48.584;9.186;2024-02-21T01:19:02;9.48;;;4.22;;
27566;SDS011;15006;48.584;9.186;2024-02-21T01:21:28;8.18;;;4.65;;
27566;SDS011;15006;48.584;9.186;2024-02-21T01:23:54;7.53;;;4.13;;
27566;SDS011;15006;48.584;9.186;2024-02-21T01:26:20;11.93;;;4.95;;
27566;SDS011;15006;48.584;9.186;2024-02-21T01:28:46;8.07;;;4.53;;
27566;SDS011;15006;48.584;9.186;2024-02-21T01:31:12;6.85;;;4.10;;
27566;SDS011;15006;48.584;9.186;2024-02-21T01:33:38;10.30;;;4.20;;
27566;SDS011;15006;48.584;9.186;2024-02-21T01:36:04;10.65;;;4.45;;
27566;SDS011;15006;48.584;9.186;2024-02-21T01:38:32;9.32;;;4.32;;
27566;SDS011;15006;48.584;9.186;2024-02-21T01:40:58;7.53;;;4.35;;
27566;SDS011;15006;48.584;9.186;2024-02-21T01:43:24;10.25;;;4.65;;
27566;SDS011;15006;48.584;9.186;2024-02-21T01:45:51;12.75;;;5.07;;
27566;SDS011;15006;48.584;9.186;2024-02-21T01:48:20;9.55;;;4.43;;
27566;SDS011;15006;48.584;9.186;2024-02-21T01:50:52;8.43;;;4.60;;
27566;SDS011;15006;48.584;9.186;2024-02-21T01:53:43;9.73;;;4.57;;
27566;SDS011;15006;48.584;9.186;2024-02-21T01:56:09;8.70;;;4.70;;
27566;SDS011;15006;48.584;9.186;2024-02-21T01:58:37;11.82;;;5.20;;
27566;SDS011;15006;48.584;9.186;2024-02-21T02:01:06;11.88;;;5.13;;
27566;SDS011;15006;48.584;9.186;2024-02-21T02:03:32;11.32;;;5.80;;
27566;SDS011;15006;48.584;9.186;2024-02-21T02:05:58;10.13;;;5.32;;
27566;SDS011;15006;48.584;9.186;2024-02-21T02:08:25;10.60;;;6.35;;
27566;SDS011;15006;48.584;9.186;2024-02-21T02:10:51;13.70;;;6.57;;
27566;SDS011;15006;48.584;9.186;2024-02-21T02:13:17;16.08;;;6.95;;
27566;SDS011;15006;48.584;9.186;2024-02-21T02:15:47;12.00;;;6.50;;
27566;SDS011;15006;48.584;9.186;2024-02-21T02:18:14;18.83;;;6.65;;
27566;SDS011;15006;48.584;9.186;2024-02-21T02:20:42;11.05;;;6.47;;
27566;SDS011;15006;48.584;9.186;2024-02-21T02:25:54;15.05;;;6.32;;
27566;SDS011;15006;48.584;9.186;2024-02-21T02:28:20;15.48;;;6.70;;
27566;SDS011;15006;48.584;9.186;2024-02-21T02:30:47;8.07;;;5.80;;
27566;SDS011;15006;48.584;9.186;2024-02-21T02:33:13;11.02;;;6.38;;
27566;SDS011;15006;48.584;9.186;2024-02-21T02:35:40;10.95;;;6.32;;
27566;SDS011;15006;48.584;9.186;2024-02-21T02:38:06;13.15;;;6.40;;
27566;SDS011;15006;48.584;9.186;2024-02-21T02:40:35;12.30;;;6.88;;
27566;SDS011;15006;48.584;9.186;2024-02-21T02:43:03;14.20;;;7.25;;
27566;SDS011;15006;48.584;9.186;2024-02-21T02:45:29;12.77;;;6.32;;
27566;SDS011;15006;48.584;9.186;2024-02-21T02:47:58;13.07;;;6.35;;
27566;SDS011;15006;48.584;9.186;2024-02-21T02:50:24;14.50;;;6.82;;
27566;SDS011;15006;48.584;9.186;2024-02-21T02:52:52;13.73;;;6.78;;
27566;SDS011;15006;48.584;9.186;2024-02-21T02:55:19;11.35;;;6.18;;
27566;SDS011;15006;48.584;9.186;2024-02-21T02:57:44;13.23;;;6.05;;
27566;SDS011;15006;48.584;9.186;2024-02-21T03:00:11;14.52;;;6.00;;
27566;SDS011;15006;48.584;9.186;2024-02-21T03:02:38;13.15;;;6.32;;
27566;SDS011;15006;48.584;9.186;2024-02-21T03:05:16;10.15;;;5.68;;
27566;SDS011;15006;48.584;9.186;2024-02-21T03:07:45;14.82;;;6.30;;
27566;SDS011;15006;48.584;9.186;2024-02-21T03:10:12;8.15;;;5.80;;
27566;SDS011;15006;48.584;9.186;2024-02-21T03:12:39;12.45;;;6.30;;
27566;SDS011;15006;48.584;9.186;2024-02-21T03:15:05;13.48;;;5.72;;
27566;SDS011;15006;48.584;9.186;2024-02-21T03:17:32;10.77;;;5.50;;
27566;SDS011;15006;48.584;9.186;2024-02-21T03:20:01;15.10;;;5.40;;
27566;SDS011;15006;48.584;9.186;2024-02-21T03:22:34;10.38;;;5.53;;
27566;SDS011;15006;48.584;9.186;2024-02-21T03:25:01;12.85;;;5.70;;
27566;SDS011;15006;48.584;9.186;2024-02-21T03:27:27;7.57;;;5.20;;
27566;SDS011;15006;48.584;9.186;2024-02-21T03:29:53;8.50;;;5.40;;
27566;SDS011;15006;48.584;9.186;2024-02-21T03:32:19;8.13;;;5.63;;
27566;SDS011;15006;48.584;9.186;2024-02-21T03:34:45;7.90;;;5.22;;
27566;SDS011;15006;48.584;9.186;2024-02-21T03:37:11;9.48;;;5.38;;
27566;SDS011;15006;48.584;9.186;2024-02-21T03:39:39;10.70;;;5.43;;
27566;SDS011;15006;48.584;9.186;2024-02-21T03:42:06;9.38;;;5.20;;
27566;SDS011;15006;48.584;9.186;2024-02-21T03:44:32;4.97;;;4.57;;
27566;SDS011;15006;48.584;9.186;2024-02-21T03:47:01;6.78;;;4.50;;
27566;SDS011;15006;48.584;9.186;2024-02-21T03:49:27;10.07;;;5.07;;
27566;SDS011;15006;48.584;9.186;2024-02-21T03:51:54;9.25;;;4.68;;
27566;SDS011;15006;48.584;9.186;2024-02-21T03:54:20;8.43;;;4.97;;
27566;SDS011;15006;48.584;9.186;2024-02-21T03:56:46;22.38;;;6.38;;
27566;SDS011;15006;48.584;9.186;2024-02-21T03:59:14;8.35;;;5.10;;
27566;SDS011;15006;48.584;9.186;2024-02-21T04:01:40;7.15;;;4.88;;
27566;SDS011;15006;48.584;9.186;2024-02-21T04:04:06;9.75;;;5.32;;
27566;SDS011;15006;48.584;9.186;2024-02-21T04:06:32;8.43;;;5.05;;
27566;SDS011;15006;48.584;9.186;2024-02-21T04:08:58;12.07;;;6.88;;
27566;SDS011;15006;48.584;9.186;2024-02-21T04:11:24;9.15;;;5.80;;
27566;SDS011;15006;48.584;9.186;2024-02-21T04:13:50;14.93;;;6.68;;
27566;SDS011;15006;48.584;9.186;2024-02-21T04:16:17;10.13;;;5.22;;
27566;SDS011;15006;48.584;9.186;2024-02-21T04:18:43;7.93;;;4.82;;
27566;SDS011;15006;48.584;9.186;2024-02-21T04:21:09;10.57;;;4.40;;
27566;SDS011;15006;48.584;9.186;2024-02-21T04:23:39;4.28;;;3.40;;
27566;SDS011;15006;48.584;9.186;2024-02-21T04:26:05;5.75;;;3.33;;
27566;SDS011;15006;48.584;9.186;2024-02-21T04:28:31;5.97;;;3.55;;
27566;SDS011;15006;48.584;9.186;2024-02-21T04:30:57;10.20;;;4.00;;
27566;SDS011;15006;48.584;9.186;2024-02-21T04:33:23;7.45;;;3.70;;
27566;SDS011;15006;48.584;9.186;2024-02-21T04:35:49;5.22;;;3.60;;
27566;SDS011;15006;48.584;9.186;2024-02-21T04:38:15;6.93;;;3.47;;
27566;SDS011;15006;48.584;9.186;2024-02-21T04:40:41;9.52;;;3.92;;
27566;SDS011;15006;48.584;9.186;2024-02-21T04:43:07;9.73;;;3.78;;
27566;SDS011;15006;48.584;9.186;2024-02-21T04:45:33;11.00;;;3.92;;
27566;SDS011;15006;48.584;9.186;2024-02-21T04:47:59;6.43;;;3.40;;
27566;SDS011;15006;48.584;9.186;2024-02-21T04:50:24;7.45;;;3.90;;
27566;SDS011;15006;48.584;9.186;2024-02-21T04:52:50;7.25;;;3.67;;
27566;SDS011;15006;48.584;9.186;2024-02-21T04:55:16;8.65;;;4.15;;
27566;SDS011;15006;48.584;9.186;2024-02-21T04:57:42;7.93;;;4.45;;
27566;SDS011;15006;48.584;9.186;2024-02-21T05:00:08;11.27;;;5.68;;
27566;SDS011;15006;48.584;9.186;2024-02-21T05:02:35;7.50;;;4.82;;
27566;SDS011;15006;48.584;9.186;2024-02-21T05:05:01;13.23;;;4.40;;
27566;SDS011;15006;48.584;9.186;2024-02-21T05:07:27;10.02;;;4.30;;
27566;SDS011;15006;48.584;9.186;2024-02-21T05:09:54;8.43;;;4.40;;
27566;SDS011;15006;48.584;9.186;2024-02-21T05:12:20;9.68;;;4.53;;
27566;SDS011;15006;48.584;9.186;2024-02-21T05:14:46;4.95;;;3.63;;
27566;SDS011;15006;48.584;9.186;2024-02-21T05:17:13;7.60;;;3.40;;
27566;SDS011;15006;48.584;9.186;2024-02-21T05:19:39;4.50;;;3.65;;
27566;SDS011;15006;48.584;9.186;2024-02-21T05:22:05;11.95;;;3.78;;
27566;SDS011;15006;48.584;9.186;2024-02-21T05:24:31;7.78;;;3.83;;
27566;SDS011;15006;48.584;9.186;2024-02-21T05:26:56;10.60;;;4.28;;
27566;SDS011;15006;48.584;9.186;2024-02-21T05:29:22;9.40;;;4.25;;
27566;SDS011;15006;48.584;9.186;2024-02-21T05:34:18;9.55;;;4.13;;
27566;SDS011;15006;48.584;9.186;2024-02-21T05:36:45;6.30;;;3.78;;
27566;SDS011;15006;48.584;9.186;2024-02-21T05:39:11;15.25;;;3.65;;
27566;SDS011;15006;48.584;9.186;2024-02-21T05:41:38;7.45;;;3.83;;
27566;SDS011;15006;48.584;9.186;2024-02-21T05:44:04;6.78;;;3.50;;
27566;SDS011;15006;48.584;9.186;2024-02-21T05:46:30;5.07;;;3.45;;
27566;SDS011;15006;48.584;9.186;2024-02-21T05:48:56;7.95;;;3.65;;
27566;SDS011;15006;48.584;9.186;2024-02-21T05:51:22;6.57;;;3.42;;
27566;SDS011;15006;48.584;9.186;2024-02-21T05:53:48;7.05;;;3.97;;
27566;SDS011;15006;48.584;9.186;2024-02-21T05:56:14;6.78;;;3.55;;
27566;SDS011;15006;48.584;9.186;2024-02-21T05:58:40;11.13;;;3.90;;
27566;SDS011;15006;48.584;9.186;2024-02-21T06:01:07;7.25;;;3.47;;
27566;SDS011;15006;48.584;9.186;2024-02-21T06:03:33;4.65;;;3.30;;
27566;SDS011;15006;48.584;9.186;2024-02-21T06:06:00;6.82;;;3.85;;
27566;SDS011;15006;48.584;9.186;2024-02-21T06:08:27;6.72;;;3.63;;
27566;SDS011;15006;48.584;9.186;2024-02-21T06:10:53;9.52;;;3.72;;
27566;SDS011;15006;48.584;9.186;2024-02-21T06:13:23;14.18;;;4.68;;
27566;SDS011;15006;48.584;9.186;2024-02-21T06:15:49;8.02;;;4.07;;
27566;SDS011;15006;48.584;9.186;2024-02-21T06:18:19;7.68;;;3.75;;
27566;SDS011;15006;48.584;9.186;2024-02-21T06:20:46;6.43;;;2.63;;
27566;SDS011;15006;48.584;9.186;2024-02-21T06:23:12;9.38;;;4.07;;
27566;SDS011;15006;48.584;9.186;2024-02-21T06:25:41;11.20;;;4.00;;
27566;SDS011;15006;48.584;9.186;2024-02-21T06:28:07;14.95;;;3.67;;
27566;SDS011;15006;48.584;9.186;2024-02-21T06:30:34;10.35;;;4.10;;
27566;SDS011;15006;48.584;9.186;2024-02-21T06:33:00;8.13;;;3.83;;
27566;SDS011;15006;48.584;9.186;2024-02-21T06:35:28;5.57;;;4.25;;
27566;SDS011;15006;48.584;9.186;2024-02-21T06:37:54;10.65;;;5.18;;
27566;SDS011;15006;48.584;9.186;2024-02-21T06:40:21;16.58;;;6.13;;
27566;SDS011;15006;48.584;9.186;2024-02-21T06:42:48;11.07;;;5.93;;
27566;SDS011;15006;48.584;9.186;2024-02-21T06:45:15;13.05;;;6.45;;
27566;SDS011;15006;48.584;9.186;2024-02-21T06:47:42;10.95;;;6.18;;
27566;SDS011;15006;48.584;9.186;2024-02-21T06:50:08;10.88;;;6.60;;
27566;SDS011;15006;48.584;9.186;2024-02-21T06:52:35;19.77;;;6.25;;
27566;SDS011;15006;48.584;9.186;2024-02-21T06:55:03;12.20;;;5.55;;
27566;SDS011;15006;48.584;9.186;2024-02-21T06:57:30;13.07;;;5.55;;
27566;SDS011;15006;48.584;9.186;2024-02-21T06:59:56;10.90;;;6.07;;
27566;SDS011;15006;48.584;9.186;2024-02-21T07:02:22;14.95;;;8.60;;
27566;SDS011;15006;48.584;9.186;2024-02-21T07:04:48;15.63;;;10.10;;
27566;SDS011;15006;48.584;9.186;2024-02-21T07:07:14;17.52;;;10.43;;
27566;SDS011;15006;48.584;9.186;2024-02-21T07:09:40;19.58;;;10.93;;
27566;SDS011;15006;48.584;9.186;2024-02-21T07:12:07;16.75;;;11.52;;
27566;SDS011;15006;48.584;9.186;2024-02-21T07:14:33;17.85;;;12.27;;
27566;SDS011;15006;48.584;9.186;2024-02-21T07:16:59;17.00;;;10.48;;
27566;SDS011;15006;48.584;9.186;2024-02-21T07:19:25;14.77;;;9.70;;
27566;SDS011;15006;48.584;9.186;2024-02-21T07:21:51;15.35;;;8.23;;
27566;SDS011;15006;48.584;9.186;2024-02-21T07:24:16;21.35;;;9.23;;
27566;SDS011;15006;48.584;9.186;2024-02-21T07:26:43;11.65;;;7.88;;
27566;SDS011;15006;48.584;9.186;2024-02-21T07:29:09;14.77;;;7.05;;
27566;SDS011;15006;48.584;9.186;2024-02-21T07:31:40;9.98;;;6.75;;
27566;SDS011;15006;48.584;9.186;2024-02-21T07:36:33;17.67;;;9.35;;
27566;SDS011;15006;48.584;9.186;2024-02-21T07:38:59;15.73;;;7.63;;
27566;SDS011;15006;48.584;9.186;2024-02-21T07:41:25;16.58;;;7.75;;
27566;SDS011;15006;48.584;9.186;2024-02-21T07:43:52;20.35;;;9.25;;
27566;SDS011;15006;48.584;9.186;2024-02-21T07:46:18;16.02;;;7.95;;
27566;SDS011;15006;48.584;9.186;2024-02-21T07:48:47;8.85;;;6.53;;
27566;SDS011;15006;48.584;9.186;2024-02-21T07:51:13;12.38;;;6.28;;
27566;SDS011;15006;48.584;9.186;2024-02-21T07:53:41;13.75;;;5.80;;
27566;SDS011;15006;48.584;9.186;2024-02-21T07:56:10;11.43;;;6.13;;
27566;SDS011;15006;48.584;9.186;2024-02-21T07:58:37;12.98;;;6.13;;
27566;SDS011;15006;48.584;9.186;2024-02-21T08:01:03;13.30;;;6.50;;
27566;SDS011;15006;48.584;9.186;2024-02-21T08:03:29;9.48;;;5.80;;
27566;SDS011;15006;48.584;9.186;2024-02-21T08:05:55;13.40;;;5.88;;
27566;SDS011;15006;48.584;9.186;2024-02-21T08:08:21;10.13;;;5.32;;
27566;SDS011;15006;48.584;9.186;2024-02-21T08:10:50;12.15;;;5.95;;
27566;SDS011;15006;48.584;9.186;2024-02-21T08:13:16;9.98;;;4.95;;
27566;SDS011;15006;48.584;9.186;2024-02-21T08:15:42;11.73;;;5.80;;
27566;SDS011;15006;48.584;9.186;2024-02-21T08:18:08;7.82;;;4.45;;
27566;SDS011;15006;48.584;9.186;2024-02-21T08:20:34;12.25;;;5.88;;
27566;SDS011;15006;48.584;9.186;2024-02-21T08:23:00;10.60;;;5.65;;
27566;SDS011;15006;48.584;9.186;2024-02-21T08:25:27;11.35;;;4.97;;
27566;SDS011;15006;48.584;9.186;2024-02-21T08:27:57;9.93;;;4.63;;
27566;SDS011;15006;48.584;9.186;2024-02-21T08:30:24;12.52;;;5.03;;
27566;SDS011;15006;48.584;9.186;2024-02-21T08:32:50;7.60;;;4.55;;
27566;SDS011;15006;48.584;9.186;2024-02-21T08:35:16;8.55;;;4.30;;
27566;SDS011;15006;48.584;9.186;2024-02-21T08:37:47;6.13;;;3.95;;
27566;SDS011;15006;48.584;9.186;2024-02-21T08:40:14;8.32;;;3.95;;
27566;SDS011;15006;48.584;9.186;2024-02-21T08:42:43;6.20;;;3.65;;
27566;SDS011;15006;48.584;9.186;2024-02-21T08:45:09;7.80;;;3.85;;
27566;SDS011;15006;48.584;9.186;2024-02-21T08:47:36;9.18;;;3.80;;
27566;SDS011;15006;48.584;9.186;2024-02-21T08:50:06;8.43;;;3.77;;
27566;SDS011;15006;48.584;9.186;2024-02-21T08:52:32;10.23;;;4.07;;
27566;SDS011;15006;48.584;9.186;2024-02-21T08:54:58;6.22;;;3.42;;
27566;SDS011;15006;48.584;9.186;2024-02-21T08:57:24;4.50;;;3.10;;
27566;SDS011;15006;48.584;9.186;2024-02-21T08:59:50;6.15;;;3.63;;
27566;SDS011;15006;48.584;9.186;2024-02-21T09:02:16;8.45;;;3.25;;
27566;SDS011;15006;48.584;9.186;2024-02-21T09:04:42;5.75;;;3.53;;
27566;SDS011;15006;48.584;9.186;2024-02-21T09:07:09;5.72;;;3.55;;
27566;SDS011;15006;48.584;9.186;2024-02-21T09:09:36;6.78;;;3.55;;
27566;SDS011;15006;48.584;9.186;2024-02-21T09:12:04;7.63;;;3.70;;
27566;SDS011;15006;48.584;9.186;2024-02-21T09:14:33;6.82;;;3.47;;
27566;SDS011;15006;48.584;9.186;2024-02-21T09:17:02;6.15;;;3.83;;
27566;SDS011;15006;48.584;9.186;2024-02-21T09:19:28;8.13;;;4.25;;
27566;SDS011;15006;48.584;9.186;2024-02-21T09:21:54;5.65;;;3.30;;
27566;SDS011;15006;48.584;9.186;2024-02-21T09:24:20;7.28;;;3.05;;
27566;SDS011;15006;48.584;9.186;2024-02-21T09:26:46;6.93;;;3.20;;
27566;SDS011;15006;48.584;9.186;2024-02-21T09:29:13;5.32;;;3.00;;
27566;SDS011;15006;48.584;9.186;2024-02-21T09:31:40;9.23;;;3.20;;
27566;SDS011;15006;48.584;9.186;2024-02-21T09:34:07;4.30;;;2.70;;
27566;SDS011;15006;48.584;9.186;2024-02-21T09:36:33;6.43;;;3.30;;
27566;SDS011;15006;48.584;9.186;2024-02-21T09:38:59;10.70;;;3.00;;
27566;SDS011;15006;48.584;9.186;2024-02-21T09:41:25;4.85;;;2.97;;
27566;SDS011;15006;48.584;9.186;2024-02-21T09:43:55;7.10;;;3.30;;
27566;SDS011;15006;48.584;9.186;2024-02-21T09:46:21;7.43;;;3.25;;
27566;SDS011;15006;48.584;9.186;2024-02-21T09:51:50;6.13;;;3.10;;
27566;SDS011;15006;48.584;9.186;2024-02-21T09:54:19;7.15;;;3.05;;
27566;SDS011;15006;48.584;9.186;2024-02-21T09:56:46;5.43;;;3.05;;
27566;SDS011;15006;48.584;9.186;2024-02-21T09:59:14;4.95;;;3.10;;
27566;SDS011;15006;48.584;9.186;2024-02-21T10:01:42;6.60;;;2.90;;
27566;SDS011;15006;48.584;9.186;2024-02-21T10:04:09;7.47;;;3.28;;
27566;SDS011;15006;48.584;9.186;2024-02-21T10:06:35;7.47;;;3.45;;
27566;SDS011;15006;48.584;9.186;2024-02-21T10:09:05;5.38;;;3.22;;
27566;SDS011;15006;48.584;9.186;2024-02-21T10:11:32;7.25;;;3.30;;
27566;SDS011;15006;48.584;9.186;2024-02-21T10:14:07;9.90;;;3.67;;
27566;SDS011;15006;48.584;9.186;2024-02-21T10:16:33;5.90;;;2.88;;
27566;SDS011;15006;48.584;9.186;2024-02-21T10:18:59;10.27;;;3.47;;
27566;SDS011;15006;48.584;9.186;2024-02-21T10:21:26;4.38;;;3.08;;
27566;SDS011;15006;48.584;9.186;2024-02-21T10:23:51;8.35;;;2.83;;
27566;SDS011;15006;48.584;9.186;2024-02-21T10:26:18;5.40;;;2.65;;
27566;SDS011;15006;48.584;9.186;2024-02-21T10:28:45;6.03;;;3.20;;
27566;SDS011;15006;48.584;9.186;2024-02-21T10:31:23;5.57;;;2.65;;
27566;SDS011;15006;48.584;9.186;2024-02-21T10:33:54;7.00;;;2.58;;
27566;SDS011;15006;48.584;9.186;2024-02-21T10:36:28;5.05;;;2.50;;
27566;SDS011;15006;48.584;9.186;2024-02-21T10:38:55;4.47;;;2.75;;
27566;SDS011;15006;48.584;9.186;2024-02-21T10:41:21;2.50;;;2.30;;
27566;SDS011;15006;48.584;9.186;2024-02-21T10:43:49;5.75;;;2.80;;
27566;SDS011;15006;48.584;9.186;2024-02-21T10:46:21;6.07;;;2.92;;
27566;SDS011;15006;48.584;9.186;2024-02-21T10:48:48;6.57;;;2.88;;
27566;SDS011;15006;48.584;9.186;2024-02-21T10:51:44;4.43;;;2.35;;
27566;SDS011;15006;48.584;9.186;2024-02-21T10:54:24;3.58;;;1.95;;
27566;SDS011;15006;48.584;9.186;2024-02-21T10:57:13;6.55;;;2.38;;
27566;SDS011;15006;48.584;9.186;2024-02-21T10:59:40;3.70;;;2.22;;
27566;SDS011;15006;48.584;9.186;2024-02-21T11:02:06;3.28;;;2.30;;
27566;SDS011;15006;48.584;9.186;2024-02-21T11:04:32;4.45;;;2.20;;
27566;SDS011;15006;48.584;9.186;2024-02-21T11:07:06;3.72;;;1.90;;
27566;SDS011;15006;48.584;9.186;2024-02-21T11:09:33;3.05;;;1.70;;
27566;SDS011;15006;48.584;9.186;2024-02-21T11:12:03;3.25;;;2.38;;
27566;SDS011;15006;48.584;9.186;2024-02-21T11:14:31;4.38;;;2.33;;
27566;SDS011;15006;48.584;9.186;2024-02-21T11:16:57;6.63;;;2.42;;
27566;SDS011;15006;48.584;9.186;2024-02-21T11:21:52;3.90;;;2.15;;
27566;SDS011;15006;48.584;9.186;2024-02-21T11:26:54;5.70;;;2.25;;
27566;SDS011;15006;48.584;9.186;2024-02-21T11:29:23;3.65;;;1.90;;
27566;SDS011;15006;48.584;9.186;2024-02-21T11:31:50;3.80;;;1.83;;
27566;SDS011;15006;48.584;9.186;2024-02-21T11:34:18;3.60;;;1.90;;
27566;SDS011;15006;48.584;9.186;2024-02-21T11:36:48;5.38;;;1.98;;
27566;SDS011;15006;48.584;9.186;2024-02-21T11:39:22;2.47;;;1.65;;
27566;SDS011;15006;48.584;9.186;2024-02-21T11:42:05;3.45;;;1.70;;
27566;SDS011;15006;48.584;9.186;2024-02-21T11:44:34;1.70;;;1.60;;
27566;SDS011;15006;48.584;9.186;2024-02-21T11:47:03;2.78;;;1.40;;
27566;SDS011;15006;48.584;9.186;2024-02-21T11:49:30;2.15;;;1.45;;
27566;SDS011;15006;48.584;9.186;2024-02-21T11:52:01;3.08;;;1.35;;
27566;SDS011;15006;48.584;9.186;2024-02-21T11:54:33;6.15;;;1.60;;
27566;SDS011;15006;48.584;9.186;2024-02-21T11:57:00;1.80;;;1.58;;
27566;SDS011;15006;48.584;9.186;2024-02-21T11:59:26;2.42;;;1.45;;
27566;SDS011;15006;48.584;9.186;2024-02-21T12:01:57;1.60;;;1.30;;
27566;SDS011;15006;48.584;9.186;2024-02-21T12:04:25;2.40;;;1.33;;
27566;SDS011;15006;48.584;9.186;2024-02-21T12:06:52;2.33;;;1.20;;
27566;SDS011;15006;48.584;9.186;2024-02-21T12:09:19;1.80;;;1.45;;
27566;SDS011;15006;48.584;9.186;2024-02-21T12:11:56;2.53;;;1.20;;
27566;SDS011;15006;48.584;9.186;2024-02-21T12:14:28;1.73;;;0.77;;
27566;SDS011;15006;48.584;9.186;2024-02-21T12:16:55;4.18;;;1.40;;
27566;SDS011;15006;48.584;9.186;2024-02-21T12:19:22;1.80;;;1.20;;
27566;SDS011;15006;48.584;9.186;2024-02-21T12:21:48;3.25;;;1.30;;
27566;SDS011;15006;48.584;9.186;2024-02-21T12:24:23;3.17;;;1.30;;
27566;SDS011;15006;48.584;9.186;2024-02-21T12:26:51;1.75;;;1.20;;
27566;SDS011;15006;48.584;9.186;2024-02-21T12:29:19;1.60;;;1.10;;
27566;SDS011;15006;48.584;9.186;2024-02-21T12:31:45;1.48;;;0.85;;
27566;SDS011;15006;48.584;9.186;2024-02-21T12:34:11;2.33;;;1.20;;
27566;SDS011;15006;48.584;9.186;2024-02-21T12:36:42;1.75;;;1.10;;
27566;SDS011;15006;48.584;9.186;2024-02-21T12:39:14;1.48;;;0.90;;
27566;SDS011;15006;48.584;9.186;2024-02-21T12:41:41;2.30;;;1.27;;
27566;SDS011;15006;48.584;9.186;2024-02-21T12:44:09;1.55;;;1.10;;
27566;SDS011;15006;48.584;9.186;2024-02-21T12:46:38;2.90;;;1.17;;
27566;SDS011;15006;48.584;9.186;2024-02-21T12:49:07;4.13;;;1.17;;
27566;SDS011;15006;48.584;9.186;2024-02-21T12:51:34;2.13;;;1.00;;
27566;SDS011;15006;48.584;9.186;2024-02-21T12:54:00;1.33;;;0.90;;
27566;SDS011;15006;48.584;9.186;2024-02-21T12:56:28;2.15;;;1.05;;
27566;SDS011;15006;48.584;9.186;2024-02-21T12:58:56;2.25;;;0.77;;
27566;SDS011;15006;48.584;9.186;2024-02-21T13:01:23;1.00;;;0.90;;
27566;SDS011;15006;48.584;9.186;2024-02-21T13:03:49;2.08;;;1.27;;
27566;SDS011;15006;48.584;9.186;2024-02-21T13:06:15;1.27;;;0.90;;
27566;SDS011;15006;48.584;9.186;2024-02-21T13:08:41;2.92;;;1.20;;
27566;SDS011;15006;48.584;9.186;2024-02-21T13:11:06;2.35;;;1.08;;
27566;SDS011;15006;48.584;9.186;2024-02-21T13:13:33;1.58;;;0.95;;
27566;SDS011;15006;48.584;9.186;2024-02-21T13:15:59;0.80;;;0.80;;
27566;SDS011;15006;48.584;9.186;2024-02-21T13:18:25;1.55;;;1.00;;
27566;SDS011;15006;48.584;9.186;2024-02-21T13:20:51;1.25;;;1.08;;
27566;SDS011;15006;48.584;9.186;2024-02-21T13:23:17;3.10;;;1.30;;
27566;SDS011;15006;48.584;9.186;2024-02-21T13:25:43;2.55;;;1.55;;
27566;SDS011;15006;48.584;9.186;2024-02-21T13:28:12;1.55;;;0.80;;
27566;SDS011;15006;48.584;9.186;2024-02-21T13:30:38;3.08;;;1.33;;
27566;SDS011;15006;48.584;9.186;2024-02-21T13:33:05;1.83;;;1.23;;
27566;SDS011;15006;48.584;9.186;2024-02-21T13:35:32;5.32;;;0.90;;
27566;SDS011;15006;48.584;9.186;2024-02-21T13:37:58;2.03;;;1.17;;
27566;SDS011;15006;48.584;9.186;2024-02-21T13:40:24;1.50;;;1.40;;
27566;SDS011;15006;48.584;9.186;2024-02-21T13:42:50;2.90;;;1.63;;
27566;SDS011;15006;48.584;9.186;2024-02-21T13:45:16;2.42;;;1.48;;
27566;SDS011;15006;48.584;9.186;2024-02-21T13:47:42;1.92;;;1.58;;
27566;SDS011;15006;48.584;9.186;2024-02-21T13:50:08;2.95;;;1.83;;
27566;SDS011;15006;48.584;9.186;2024-02-21T13:52:35;2.25;;;1.35;;
27566;SDS011;15006;48.584;9.186;2024-02-21T13:55:02;1.30;;;1.17;;
27566;SDS011;15006;48.584;9.186;2024-02-21T13:57:28;1.20;;;1.10;;
27566;SDS011;15006;48.584;9.186;2024-02-21T13:59:54;2.95;;;1.33;;
27566;SDS011;15006;48.584;9.186;2024-02-21T14:02:20;1.10;;;1.00;;
27566;SDS011;15006;48.584;9.186;2024-02-21T14:04:46;1.70;;;1.15;;
27566;SDS011;15006;48.584;9.186;2024-02-21T14:07:12;1.52;;;1.42;;
27566;SDS011;15006;48.584;9.186;2024-02-21T14:09:38;1.67;;;1.10;;
27566;SDS011;15006;48.584;9.186;2024-02-21T14:12:04;2.08;;;1.20;;
27566;SDS011;15006;48.584;9.186;2024-02-21T14:14:35;1.95;;;1.17;;
27566;SDS011;15006;48.584;9.186;2024-02-21T14:17:02;1.02;;;0.95;;
27566;SDS011;15006;48.584;9.186;2024-02-21T14:19:29;1.17;;;0.90;;
27566;SDS011;15006;48.584;9.186;2024-02-21T14:21:56;1.85;;;0.98;;
27566;SDS011;15006;48.584;9.186;2024-02-21T14:24:22;0.93;;;0.73;;
27566;SDS011;15006;48.584;9.186;2024-02-21T14:26:49;1.63;;;1.25;;
27566;SDS011;15006;48.584;9.186;2024-02-21T14:29:15;2.08;;;1.00;;
27566;SDS011;15006;48.584;9.186;2024-02-21T14:31:42;1.23;;;1.00;;
27566;SDS011;15006;48.584;9.186;2024-02-21T14:34:07;3.70;;;1.05;;
27566;SDS011;15006;48.584;9.186;2024-02-21T14:36:33;1.35;;;0.98;;
27566;SDS011;15006;48.584;9.186;2024-02-21T14:38:59;0.75;;;0.70;;
27566;SDS011;15006;48.584;9.186;2024-02-21T14:41:25;5.78;;;1.13;;
27566;SDS011;15006;48.584;9.186;2024-02-21T14:43:52;1.63;;;1.00;;
27566;SDS011;15006;48.584;9.186;2024-02-21T14:46:18;2.15;;;1.10;;
27566;SDS011;15006;48.584;9.186;2024-02-21T14:48:44;1.23;;;1.08;;
27566;SDS011;15006;48.584;9.186;2024-02-21T14:51:10;4.15;;;0.90;;
27566;SDS011;15006;48.584;9.186;2024-02-21T14:53:37;1.67;;;1.10;;
27566;SDS011;15006;48.584;9.186;2024-02-21T14:56:03;4.60;;;1.10;;
27566;SDS011;15006;48.584;9.186;2024-02-21T14:58:29;1.50;;;0.88;;